createdAt,value
2018-12-30T00:03:11.161Z,8.2
2018-12-30T00:08:11.887Z,8.2
2018-12-30T00:13:11.235Z,8.3
2018-12-30T00:18:11.099Z,8.3
2018-12-30T00:23:11.882Z,8.3
2018-12-30T00:28:11.425Z,8.3
2018-12-30T00:33:11.094Z,8.3
2018-12-30T00:38:11.592Z,8.3
2018-12-30T00:43:11.381Z,8.2
2018-12-30T00:48:12.030Z,8.2
2018-12-30T00:53:11.745Z,8.2
2018-12-30T00:58:11.259Z,8.2
2018-12-30T01:03:12.093Z,7.9
2018-12-30T01:08:11.740Z,7.9
2018-12-30T01:13:11.470Z,7.8
2018-12-30T01:18:11.408Z,7.8
2018-12-30T01:23:12.006Z,7.6
2018-12-30T01:28:11.622Z,7.6
2018-12-30T01:33:11.240Z,7.5
2018-12-30T01:38:11.809Z,7.5
2018-12-30T01:43:11.849Z,7.3
2018-12-30T01:48:11.450Z,7.3
2018-12-30T01:53:11.171Z,7.2
2018-12-30T01:58:11.405Z,7.2
2018-12-30T02:03:12.003Z,6.9
2018-12-30T02:08:11.988Z,6.9
2018-12-30T02:13:11.556Z,6.8
2018-12-30T02:18:11.237Z,6.8
2018-12-30T02:23:12.048Z,6.6
2018-12-30T02:28:11.590Z,6.6
2018-12-30T02:33:12.125Z,6.3
2018-12-30T02:38:11.795Z,6.3
2018-12-30T02:43:11.304Z,6.1
2018-12-30T02:48:11.946Z,6.1
2018-12-30T02:53:11.867Z,5.9
2018-12-30T02:58:11.479Z,5.9
2018-12-30T03:03:11.246Z,5.8
2018-12-30T03:08:11.894Z,5.8
2018-12-30T03:13:11.442Z,5.8
2018-12-30T03:18:11.920Z,5.8
2018-12-30T03:23:11.470Z,5.7
2018-12-30T03:28:12.041Z,5.7
2018-12-30T03:33:11.561Z,5.6
2018-12-30T03:38:11.230Z,5.6
2018-12-30T03:43:11.797Z,5.4
2018-12-30T03:48:11.371Z,5.4
2018-12-30T03:53:11.898Z,5.3
2018-12-30T03:58:11.583Z,5.3
2018-12-30T04:03:11.330Z,5.3
2018-12-30T04:08:11.468Z,5.3
2018-12-30T04:13:12.065Z,5.3
2018-12-30T04:18:11.687Z,5.3
2018-12-30T04:23:11.452Z,5.3
2018-12-30T04:28:11.896Z,5.3
2018-12-30T04:33:11.425Z,5.5
2018-12-30T04:38:12.110Z,5.5
2018-12-30T04:43:11.586Z,5.6
2018-12-30T04:48:11.356Z,5.6
2018-12-30T04:53:11.892Z,5.7
2018-12-30T04:58:11.593Z,5.7
2018-12-30T05:03:12.295Z,5.8
2018-12-30T05:08:11.914Z,5.8
2018-12-30T05:13:11.621Z,5.9
2018-12-30T05:18:12.140Z,5.9
2018-12-30T05:23:11.908Z,6
2018-12-30T05:28:11.812Z,6
2018-12-30T05:33:11.554Z,6.1
2018-12-30T05:38:12.302Z,6.1
2018-12-30T05:43:11.958Z,6.2
2018-12-30T05:48:11.762Z,6.2
2018-12-30T05:53:11.653Z,6.2
2018-12-30T05:58:11.312Z,6.2
2018-12-30T06:03:11.937Z,6.3
2018-12-30T06:08:12.222Z,6.3
2018-12-30T06:13:11.890Z,6.4
2018-12-30T06:18:11.562Z,6.4
2018-12-30T06:23:12.047Z,6.4
2018-12-30T06:28:11.663Z,6.4
2018-12-30T06:33:12.281Z,6.6
2018-12-30T06:38:11.993Z,6.6
2018-12-30T06:43:11.573Z,6.6
2018-12-30T06:48:12.172Z,6.6
2018-12-30T06:53:11.959Z,6.7
2018-12-30T06:58:11.550Z,6.7
2018-12-30T07:03:12.420Z,6.8
2018-12-30T07:08:11.741Z,6.8
2018-12-30T07:13:12.326Z,6.8
2018-12-30T07:18:12.080Z,6.8
2018-12-30T07:23:11.599Z,6.9
2018-12-30T07:28:12.327Z,6.9
2018-12-30T07:33:11.906Z,7
2018-12-30T07:38:11.528Z,7
2018-12-30T07:43:12.159Z,7
2018-12-30T07:48:11.947Z,7
2018-12-30T07:53:13.901Z,7.1
2018-12-30T07:58:11.597Z,7.1
2018-12-30T08:03:12.175Z,7.1
2018-12-30T08:08:11.848Z,7.1
2018-12-30T08:13:12.448Z,7.2
2018-12-30T08:18:11.969Z,7.2
2018-12-30T08:23:11.540Z,7.2
2018-12-30T08:28:11.827Z,7.2
2018-12-30T08:33:12.534Z,7.3
2018-12-30T08:38:12.226Z,7.3
2018-12-30T08:43:11.826Z,7.3
2018-12-30T08:48:12.497Z,7.3
2018-12-30T08:53:12.114Z,7.4
2018-12-30T08:58:11.565Z,7.4
2018-12-30T09:03:12.179Z,7.4
2018-12-30T09:08:11.663Z,7.4
2018-12-30T09:13:12.354Z,7.4
2018-12-30T09:18:11.942Z,7.4
2018-12-30T09:23:11.601Z,7.5
2018-12-30T09:28:12.266Z,7.5
2018-12-30T09:33:11.955Z,7.6
2018-12-30T09:38:11.703Z,7.6
2018-12-30T09:43:12.303Z,7.6
2018-12-30T09:48:12.082Z,7.6
2018-12-30T09:53:11.741Z,7.7
2018-12-30T09:58:12.411Z,7.7
2018-12-30T10:03:12.080Z,7.7
2018-12-30T10:08:12.048Z,7.7
2018-12-30T10:13:11.746Z,7.8
2018-12-30T10:18:12.306Z,7.8
2018-12-30T10:23:12.021Z,7.8
2018-12-30T10:28:11.705Z,7.8
2018-12-30T10:33:12.348Z,8
2018-12-30T10:38:11.970Z,8
2018-12-30T10:43:12.602Z,8.2
2018-12-30T10:48:12.287Z,8.2
2018-12-30T10:53:11.864Z,8.4
2018-12-30T10:58:12.418Z,8.4
2018-12-30T11:03:12.074Z,8.5
2018-12-30T11:08:12.630Z,8.5
2018-12-30T11:13:12.101Z,8.4
2018-12-30T11:18:11.859Z,8.4
2018-12-30T11:23:12.425Z,8.6
2018-12-30T11:28:11.973Z,8.6
2018-12-30T11:33:12.637Z,8.7
2018-12-30T11:38:12.421Z,8.7
2018-12-30T11:43:12.199Z,8.8
2018-12-30T11:48:12.043Z,8.8
2018-12-30T11:53:11.964Z,9.1
2018-12-30T11:58:12.567Z,9.1
2018-12-30T12:03:12.304Z,9.2
2018-12-30T12:08:11.822Z,9.2
2018-12-30T12:13:12.427Z,9.3
2018-12-30T12:18:12.046Z,9.3
2018-12-30T12:23:12.776Z,9.3
2018-12-30T12:28:12.429Z,9.3
2018-12-30T12:33:12.090Z,9.3
2018-12-30T12:38:12.065Z,9.3
2018-12-30T12:43:12.605Z,9.1
2018-12-30T12:48:12.281Z,9.1
2018-12-30T12:53:12.528Z,9.1
2018-12-30T12:58:12.192Z,9.1
2018-12-30T13:03:11.939Z,9.1
2018-12-30T13:08:12.067Z,9.1
2018-12-30T13:13:12.924Z,8.9
2018-12-30T13:18:12.513Z,8.9
2018-12-30T13:23:12.332Z,8.7
2018-12-30T13:28:12.074Z,8.7
2018-12-30T13:33:12.747Z,8.6
2018-12-30T13:38:12.741Z,8.6
2018-12-30T13:43:12.373Z,8.4
2018-12-30T13:48:12.175Z,8.4
2018-12-30T13:53:12.790Z,8.3
2018-12-30T13:58:12.539Z,8.3
2018-12-30T14:03:12.559Z,8.3
2018-12-30T14:08:12.513Z,8.3
2018-12-30T14:13:12.838Z,8.2
2018-12-30T14:18:12.491Z,8.2
2018-12-30T14:23:12.346Z,8.1
2018-12-30T14:28:12.288Z,8.1
2018-12-30T14:33:12.983Z,8
2018-12-30T14:38:12.793Z,8
2018-12-30T14:43:12.340Z,7.9
2018-12-30T14:48:12.238Z,7.9
2018-12-30T14:53:18.958Z,7.8
2018-12-30T14:58:11.918Z,7.8
2018-12-30T15:03:12.171Z,7.8
2018-12-30T15:08:12.076Z,7.8
2018-12-30T15:13:12.954Z,7.7
2018-12-30T15:18:12.704Z,7.7
2018-12-30T15:23:12.263Z,7.5
2018-12-30T15:28:12.869Z,7.5
2018-12-30T15:33:12.483Z,7.4
2018-12-30T15:38:12.338Z,7.4
2018-12-30T15:43:12.064Z,7.2
2018-12-30T15:48:12.817Z,7.2
2018-12-30T15:53:12.526Z,7.1
2018-12-30T15:58:12.049Z,7.1
2018-12-30T16:03:12.666Z,7
2018-12-30T16:08:12.524Z,7
2018-12-30T16:13:12.327Z,6.9
2018-12-30T16:18:12.965Z,6.9
2018-12-30T16:23:12.413Z,6.8
2018-12-30T16:28:12.981Z,6.8
2018-12-30T16:33:12.626Z,6.7
2018-12-30T16:38:12.185Z,6.7
2018-12-30T16:43:12.674Z,6.6
2018-12-30T16:48:12.316Z,6.6
2018-12-30T16:53:12.809Z,6.4
2018-12-30T16:58:12.423Z,6.4
2018-12-30T17:03:13.119Z,6.3
2018-12-30T17:08:12.966Z,6.3
2018-12-30T17:13:12.721Z,6.3
2018-12-30T17:18:12.382Z,6.3
2018-12-30T17:23:12.956Z,6.2
2018-12-30T17:28:12.505Z,6.2
2018-12-30T17:33:12.295Z,6.1
2018-12-30T17:38:12.982Z,6.1
2018-12-30T17:43:12.440Z,6.1
2018-12-30T17:48:13.172Z,6.1
2018-12-30T17:53:12.759Z,6
2018-12-30T17:58:12.460Z,6
2018-12-30T18:03:13.176Z,5.9
2018-12-30T18:08:13.115Z,5.9
2018-12-30T18:13:12.157Z,5.8
2018-12-30T18:18:12.768Z,5.8
2018-12-30T18:23:12.329Z,5.8
2018-12-30T18:28:12.964Z,5.8
2018-12-30T18:33:12.673Z,5.8
2018-12-30T18:38:12.383Z,5.8
2018-12-30T18:43:12.836Z,5.8
2018-12-30T18:48:12.696Z,5.8
2018-12-30T18:53:12.345Z,5.7
2018-12-30T18:58:12.869Z,5.7
2018-12-30T19:03:12.419Z,5.7
2018-12-30T19:08:12.467Z,5.7
2018-12-30T19:13:12.595Z,5.7
2018-12-30T19:18:12.358Z,5.7
2018-12-30T19:23:12.961Z,5.7
2018-12-30T19:28:12.508Z,5.7
2018-12-30T19:33:13.061Z,5.7
2018-12-30T19:38:12.918Z,5.7
2018-12-30T19:43:12.518Z,5.7
2018-12-30T19:48:12.458Z,5.7
2018-12-30T19:53:13.072Z,5.7
2018-12-30T19:58:12.583Z,5.7
2018-12-30T20:03:13.358Z,5.8
2018-12-30T20:08:13.228Z,5.8
2018-12-30T20:13:13.181Z,5.9
2018-12-30T20:18:12.709Z,5.9
2018-12-30T20:23:13.501Z,6.1
2018-12-30T20:28:13.230Z,6.1
2018-12-30T20:33:12.838Z,6.1
2018-12-30T20:38:12.513Z,6.1
2018-12-30T20:43:13.164Z,6.2
2018-12-30T20:48:12.816Z,6.2
2018-12-30T20:53:12.667Z,6.3
2018-12-30T20:58:13.231Z,6.3
2018-12-30T21:03:12.910Z,6.4
2018-12-30T21:08:13.017Z,6.4
2018-12-30T21:13:13.220Z,6.4
2018-12-30T21:18:12.812Z,6.4
2018-12-30T21:23:12.412Z,6.5
2018-12-30T21:28:13.050Z,6.5
2018-12-30T21:33:12.592Z,6.5
2018-12-30T21:38:13.208Z,6.5
2018-12-30T21:43:12.925Z,6.6
2018-12-30T21:48:12.683Z,6.6
2018-12-30T21:53:13.221Z,6.6
2018-12-30T21:58:12.719Z,6.6
2018-12-30T22:03:13.345Z,6.5
2018-12-30T22:08:13.235Z,6.5
2018-12-30T22:13:13.400Z,6.5
2018-12-30T22:18:13.086Z,6.5
2018-12-30T22:23:12.568Z,6.5
2018-12-30T22:28:13.231Z,6.5
2018-12-30T22:33:12.734Z,6.5
2018-12-30T22:38:12.599Z,6.5
2018-12-30T22:43:14.645Z,6.5
2018-12-30T22:48:13.072Z,6.5
2018-12-30T22:53:12.660Z,6.5
2018-12-30T22:58:13.088Z,6.5
2018-12-30T23:03:13.177Z,6.6
2018-12-30T23:08:12.645Z,6.6
2018-12-30T23:13:13.158Z,6.6
2018-12-30T23:18:12.769Z,6.6
2018-12-30T23:23:12.536Z,6.6
2018-12-30T23:28:13.187Z,6.6
2018-12-30T23:33:12.712Z,6.6
2018-12-30T23:38:12.552Z,6.6
2018-12-30T23:43:13.029Z,6.6
2018-12-30T23:48:13.566Z,6.6
2018-12-30T23:53:13.292Z,6.6
2018-12-30T23:58:12.799Z,6.6
